createdAt,value
2023-03-06T00:00:18.170Z,96.10
2023-03-06T00:02:46.768Z,96.10
2023-03-06T00:05:15.128Z,96.40
2023-03-06T00:07:43.703Z,96.10
2023-03-06T00:10:14.958Z,96.10
2023-03-06T00:12:43.493Z,96.90
2023-03-06T00:15:12.185Z,96.30
2023-03-06T00:17:40.464Z,96.10
2023-03-06T00:20:11.146Z,95.90
2023-03-06T00:22:39.890Z,95.80
2023-03-06T00:25:10.178Z,96.00
2023-03-06T00:27:39.836Z,95.90
2023-03-06T00:30:09.784Z,95.80
2023-03-06T00:32:38.106Z,96.00
2023-03-06T00:35:07.166Z,96.10
2023-03-06T00:37:35.388Z,96.30
2023-03-06T00:40:05.703Z,96.00
2023-03-06T00:42:33.943Z,95.90
2023-03-06T00:45:03.705Z,95.90
2023-03-06T00:47:32.041Z,96.00
2023-03-06T00:50:00.290Z,95.80
2023-03-06T00:52:28.637Z,95.90
2023-03-06T00:54:56.943Z,95.90
2023-03-06T00:57:25.196Z,95.90
2023-03-06T00:59:53.612Z,95.90
2023-03-06T01:02:23.263Z,96.00
2023-03-06T01:04:51.528Z,96.10
2023-03-06T01:07:19.754Z,96.10
2023-03-06T01:09:47.986Z,96.20
2023-03-06T01:12:16.320Z,96.30
2023-03-06T01:14:44.540Z,96.30
2023-03-06T01:17:12.960Z,96.40
2023-03-06T01:19:42.558Z,96.40
2023-03-06T01:22:10.851Z,96.40
2023-03-06T01:24:39.212Z,96.30
2023-03-06T01:27:07.607Z,96.30
2023-03-06T01:29:35.926Z,96.30
2023-03-06T01:32:04.226Z,96.30
2023-03-06T01:34:32.588Z,96.30
2023-03-06T01:37:02.282Z,96.20
2023-03-06T01:39:31.618Z,96.30
2023-03-06T01:41:59.882Z,96.20
2023-03-06T01:44:28.198Z,96.20
2023-03-06T01:46:56.387Z,96.20
2023-03-06T01:49:26.718Z,96.10
2023-03-06T01:51:57.148Z,96.20
2023-03-06T01:54:30.209Z,96.30
2023-03-06T01:57:01.845Z,96.20
2023-03-06T01:59:30.394Z,96.20
2023-03-06T02:01:59.691Z,96.60
2023-03-06T02:04:27.956Z,96.70
2023-03-06T02:06:56.656Z,96.80
2023-03-06T02:09:29.926Z,96.80
2023-03-06T02:11:58.320Z,96.80
2023-03-06T02:14:26.883Z,96.70
2023-03-06T02:16:55.173Z,96.70
2023-03-06T02:19:37.974Z,96.80
2023-03-06T02:22:07.286Z,96.60
2023-03-06T02:24:41.470Z,96.50
2023-03-06T02:27:12.477Z,96.60
2023-03-06T02:29:40.759Z,96.70
2023-03-06T02:32:09.206Z,96.80
2023-03-06T02:34:51.738Z,96.60
2023-03-06T02:37:20.491Z,96.70
2023-03-06T02:39:54.071Z,96.80
2023-03-06T02:42:25.334Z,96.70
2023-03-06T02:44:54.835Z,96.80
2023-03-06T02:47:29.167Z,96.80
2023-03-06T02:49:57.482Z,96.80
2023-03-06T02:52:25.808Z,96.70
2023-03-06T02:54:54.089Z,96.70
2023-03-06T02:57:23.756Z,96.70
2023-03-06T02:59:51.942Z,96.80
2023-03-06T03:02:20.209Z,97.10
2023-03-06T03:04:48.676Z,97.10
2023-03-06T03:07:16.995Z,97.10
2023-03-06T03:09:45.416Z,97.50
2023-03-06T03:12:13.640Z,97.70
2023-03-06T03:14:43.293Z,97.60
2023-03-06T03:17:11.536Z,97.50
2023-03-06T03:19:39.769Z,97.60
2023-03-06T03:22:08.383Z,97.60
2023-03-06T03:24:36.723Z,97.60
2023-03-06T03:27:05.136Z,97.60
2023-03-06T03:29:33.472Z,97.70
2023-03-06T03:32:03.239Z,97.70
2023-03-06T03:34:31.507Z,97.80
2023-03-06T03:36:59.820Z,97.90
2023-03-06T03:39:28.186Z,97.90
2023-03-06T03:41:56.547Z,97.80
2023-03-06T03:44:24.832Z,97.90
2023-03-06T03:46:53.161Z,98.00
2023-03-06T03:49:22.864Z,98.00
2023-03-06T03:51:51.135Z,98.00
2023-03-06T03:54:19.556Z,98.10
2023-03-06T03:56:47.768Z,98.30
2023-03-06T03:59:16.038Z,98.30
2023-03-06T04:01:44.733Z,98.40
2023-03-06T04:04:13.159Z,98.60
2023-03-06T04:06:42.965Z,99.00
2023-03-06T04:09:11.265Z,98.90
2023-03-06T04:11:39.456Z,99.00
2023-03-06T04:14:08.329Z,98.90
2023-03-06T04:16:36.696Z,99.00
2023-03-06T04:19:04.972Z,99.10
2023-03-06T04:21:33.182Z,99.10
2023-03-06T04:24:03.155Z,99.30
2023-03-06T04:26:31.390Z,99.40
2023-03-06T04:28:59.750Z,99.40
2023-03-06T04:31:28.125Z,99.40
2023-03-06T04:33:56.372Z,99.70
2023-03-06T04:36:29.163Z,99.70
2023-03-06T04:38:57.456Z,99.60
2023-03-06T04:41:27.276Z,99.70
2023-03-06T04:43:55.623Z,99.90
2023-03-06T04:46:23.880Z,99.90
2023-03-06T04:48:52.081Z,99.90
2023-03-06T04:51:20.364Z,99.90
2023-03-06T04:53:48.670Z,99.90
2023-03-06T04:56:17.094Z,99.90
2023-03-06T04:58:46.848Z,99.90
2023-03-06T05:01:15.139Z,99.90
2023-03-06T05:03:43.457Z,99.90
2023-03-06T05:06:11.819Z,99.90
2023-03-06T05:08:40.039Z,99.90
2023-03-06T05:11:08.377Z,99.90
2023-03-06T05:13:36.653Z,99.90
2023-03-06T05:16:07.866Z,99.90
2023-03-06T05:18:36.663Z,99.90
2023-03-06T05:21:06.496Z,99.90
2023-03-06T05:23:38.510Z,99.90
2023-03-06T05:26:08.804Z,99.90
2023-03-06T05:28:37.208Z,99.90
2023-03-06T05:31:07.531Z,99.90
2023-03-06T05:33:36.643Z,99.90
2023-03-06T05:36:05.704Z,99.90
2023-03-06T05:38:34.122Z,99.90
2023-03-06T05:41:02.492Z,99.90
2023-03-06T05:43:30.832Z,99.90
2023-03-06T05:46:03.635Z,99.90
2023-03-06T05:48:34.184Z,99.90
2023-03-06T05:51:03.296Z,99.90
2023-03-06T05:53:32.272Z,99.90
2023-03-06T05:56:00.650Z,99.90
2023-03-06T05:58:29.722Z,99.90
2023-03-06T06:00:58.040Z,99.90
2023-03-06T06:03:26.545Z,99.90
2023-03-06T06:05:56.295Z,99.90
2023-03-06T06:08:24.599Z,99.90
2023-03-06T06:10:53.526Z,99.90
2023-03-06T06:13:21.891Z,99.90
2023-03-06T06:15:50.211Z,99.90
2023-03-06T06:18:18.551Z,99.90
2023-03-06T06:20:46.748Z,99.90
2023-03-06T06:23:16.457Z,99.90
2023-03-06T06:25:44.699Z,99.90
2023-03-06T06:28:13.361Z,99.90
2023-03-06T06:30:41.697Z,99.90
2023-03-06T06:33:10.156Z,99.90
2023-03-06T06:35:38.448Z,99.90
2023-03-06T06:38:06.688Z,99.90
2023-03-06T06:40:36.273Z,99.90
2023-03-06T06:43:04.577Z,99.90
2023-03-06T06:45:32.877Z,99.90
2023-03-06T06:48:01.111Z,99.90
2023-03-06T06:50:29.309Z,99.70
2023-03-06T06:52:57.539Z,99.40
2023-03-06T06:55:25.905Z,99.00
2023-03-06T06:57:55.515Z,98.60
2023-03-06T07:00:24.838Z,98.40
2023-03-06T07:02:53.047Z,97.90
2023-03-06T07:05:22.211Z,97.60
2023-03-06T07:07:51.403Z,97.00
2023-03-06T07:10:21.075Z,96.30
2023-03-06T07:12:49.545Z,95.90
2023-03-06T07:15:19.689Z,95.90
2023-03-06T07:17:50.054Z,95.60
2023-03-06T07:20:19.253Z,95.40
2023-03-06T07:22:51.228Z,94.80
2023-03-06T07:25:20.761Z,94.30
2023-03-06T07:27:53.623Z,94.30
2023-03-06T07:30:24.320Z,93.90
2023-03-06T07:32:56.442Z,93.20
2023-03-06T07:35:25.998Z,92.50
2023-03-06T07:37:54.642Z,92.00
2023-03-06T07:40:22.873Z,92.10
2023-03-06T07:42:53.912Z,91.50
2023-03-06T07:45:23.950Z,91.10
2023-03-06T07:47:52.628Z,91.20
2023-03-06T07:50:21.530Z,90.60
2023-03-06T07:52:50.272Z,90.70
2023-03-06T07:55:18.657Z,90.60
2023-03-06T07:57:46.873Z,90.30
2023-03-06T08:00:16.616Z,90.10
2023-03-06T08:02:46.201Z,88.90
2023-03-06T08:05:16.558Z,86.20
2023-03-06T08:07:45.543Z,85.60
2023-03-06T08:10:15.413Z,85.80
2023-03-06T08:12:43.716Z,83.20
2023-03-06T08:15:13.901Z,83.50
2023-03-06T08:17:42.107Z,81.60
2023-03-06T08:20:14.418Z,80.40
2023-03-06T08:22:42.759Z,81.10
2023-03-06T08:25:13.337Z,80.60
2023-03-06T08:27:41.738Z,78.70
2023-03-06T08:30:11.350Z,76.90
2023-03-06T08:32:39.686Z,75.30
2023-03-06T08:35:08.474Z,74.30
2023-03-06T08:37:38.201Z,74.00
2023-03-06T08:40:07.594Z,73.10
2023-03-06T08:42:35.780Z,73.00
2023-03-06T08:45:04.126Z,72.50
2023-03-06T08:47:32.349Z,73.00
2023-03-06T08:50:00.976Z,72.60
2023-03-06T08:52:29.235Z,70.10
2023-03-06T08:55:03.407Z,69.80
2023-03-06T08:57:31.738Z,68.90
2023-03-06T08:59:59.937Z,68.60
2023-03-06T09:02:28.267Z,67.70
2023-03-06T09:04:56.546Z,68.10
2023-03-06T09:07:24.807Z,67.70
2023-03-06T09:09:56.355Z,68.30
2023-03-06T09:12:26.071Z,66.70
2023-03-06T09:14:54.443Z,65.30
2023-03-06T09:17:22.699Z,62.80
2023-03-06T09:19:52.298Z,63.10
2023-03-06T09:22:20.529Z,62.10
2023-03-06T09:24:49.134Z,64.50
2023-03-06T09:27:17.565Z,65.90
2023-03-06T09:29:47.133Z,67.80
2023-03-06T09:32:15.666Z,67.70
2023-03-06T09:34:43.960Z,65.30
2023-03-06T09:37:12.222Z,64.40
2023-03-06T09:39:40.630Z,62.90
2023-03-06T09:42:12.277Z,62.70
2023-03-06T09:44:41.150Z,63.20
2023-03-06T09:47:46.254Z,61.90
2023-03-06T09:50:29.228Z,63.10
2023-03-06T09:53:16.382Z,62.30
2023-03-06T09:55:47.139Z,61.80
2023-03-06T09:58:18.154Z,61.50
2023-03-06T10:00:53.904Z,61.30
2023-03-06T10:03:27.223Z,60.90
2023-03-06T10:06:02.188Z,59.10
2023-03-06T10:08:37.392Z,57.90
2023-03-06T10:11:08.252Z,56.80
2023-03-06T10:13:42.305Z,58.20
2023-03-06T10:16:27.523Z,59.10
2023-03-06T10:19:00.980Z,58.80
2023-03-06T10:21:40.284Z,58.10
2023-03-06T10:24:17.897Z,56.60
2023-03-06T10:26:50.101Z,56.90
2023-03-06T10:29:34.471Z,57.50
2023-03-06T10:32:10.498Z,56.10
2023-03-06T10:34:41.584Z,54.30
2023-03-06T10:37:17.790Z,54.30
2023-03-06T10:39:46.021Z,54.90
2023-03-06T10:42:14.295Z,51.60
2023-03-06T10:44:42.577Z,52.10
2023-03-06T10:47:30.835Z,51.80
2023-03-06T10:50:02.184Z,52.80
2023-03-06T10:52:32.065Z,54.10
2023-03-06T10:55:23.859Z,53.10
2023-03-06T10:57:52.252Z,51.40
2023-03-06T11:00:32.389Z,53.20
2023-03-06T11:03:22.932Z,50.50
2023-03-06T11:06:06.599Z,51.60
2023-03-06T11:08:35.460Z,53.20
2023-03-06T11:11:05.938Z,54.30
2023-03-06T11:13:36.001Z,53.50
2023-03-06T11:16:07.798Z,52.00
2023-03-06T11:18:38.489Z,52.70
2023-03-06T11:21:29.189Z,52.90
2023-03-06T11:24:04.127Z,55.00
2023-03-06T11:26:50.957Z,53.70
2023-03-06T11:29:37.496Z,53.90
2023-03-06T11:32:12.527Z,53.70
2023-03-06T11:34:46.164Z,53.30
2023-03-06T11:37:21.795Z,54.30
2023-03-06T11:39:53.612Z,54.40
2023-03-06T11:42:25.161Z,54.40
2023-03-06T11:44:59.094Z,54.70
2023-03-06T11:47:33.236Z,52.30
2023-03-06T11:50:09.142Z,52.10
2023-03-06T11:52:45.171Z,52.30
2023-03-06T11:55:16.467Z,53.60
2023-03-06T11:57:49.941Z,53.70
2023-03-06T12:00:30.535Z,52.60
2023-03-06T12:03:30.357Z,51.90
2023-03-06T12:06:04.200Z,51.80
2023-03-06T12:08:52.202Z,52.80
2023-03-06T12:11:23.084Z,51.80
2023-03-06T12:14:15.212Z,52.20
2023-03-06T12:17:04.017Z,52.70
2023-03-06T12:19:42.713Z,52.60
2023-03-06T12:22:22.530Z,52.80
2023-03-06T12:25:07.894Z,52.30
2023-03-06T12:27:43.305Z,51.60
2023-03-06T12:30:36.512Z,52.60
2023-03-06T12:33:12.655Z,52.80
2023-03-06T12:36:05.236Z,52.00
2023-03-06T12:39:14.916Z,51.50
2023-03-06T12:42:11.316Z,52.10
2023-03-06T12:45:15.062Z,52.20
2023-03-06T12:47:45.693Z,52.50
2023-03-06T12:50:20.104Z,51.50
2023-03-06T12:52:49.319Z,50.30
2023-03-06T12:55:24.339Z,51.00
2023-03-06T12:57:55.201Z,50.90
2023-03-06T13:01:03.518Z,52.20
2023-03-06T13:03:46.012Z,53.10
2023-03-06T13:06:34.161Z,54.10
2023-03-06T13:09:18.750Z,54.30
2023-03-06T13:12:11.071Z,53.10
2023-03-06T13:15:02.166Z,54.50
2023-03-06T13:17:38.145Z,57.20
2023-03-06T13:20:29.551Z,56.60
2023-03-06T13:22:57.854Z,55.90
2023-03-06T13:25:39.022Z,54.40
2023-03-06T13:28:23.030Z,53.40
2023-03-06T13:30:53.344Z,53.20
2023-03-06T13:33:53.751Z,53.60
2023-03-06T13:36:25.553Z,49.20
2023-03-06T13:39:08.626Z,48.90
2023-03-06T13:41:56.270Z,49.40
2023-03-06T13:44:51.109Z,47.70
2023-03-06T13:50:38.464Z,47.90
2023-03-06T13:53:20.949Z,49.20
2023-03-06T13:55:58.382Z,49.10
2023-03-06T13:58:35.136Z,48.20
2023-03-06T14:01:18.271Z,48.70
2023-03-06T14:04:26.228Z,48.50
2023-03-06T14:07:06.518Z,48.10
2023-03-06T14:09:36.924Z,48.30
2023-03-06T14:12:09.553Z,52.60
2023-03-06T14:14:42.801Z,49.70
2023-03-06T14:17:21.235Z,49.60
2023-03-06T14:19:51.270Z,50.40
2023-03-06T14:22:23.392Z,51.30
2023-03-06T14:24:58.181Z,50.80
2023-03-06T14:27:45.272Z,50.70
2023-03-06T14:30:16.340Z,51.20
2023-03-06T14:32:44.635Z,51.90
2023-03-06T14:35:28.977Z,52.40
2023-03-06T14:38:00.125Z,52.20
2023-03-06T14:40:32.445Z,50.80
2023-03-06T14:43:22.854Z,51.90
2023-03-06T14:45:53.055Z,52.50
2023-03-06T14:48:21.454Z,52.80
2023-03-06T14:50:53.173Z,52.00
2023-03-06T14:53:25.098Z,51.70
2023-03-06T14:55:55.952Z,52.40
2023-03-06T14:58:28.821Z,52.60
2023-03-06T15:00:58.783Z,52.80
2023-03-06T15:03:33.438Z,53.80
2023-03-06T15:06:03.513Z,54.10
2023-03-06T15:08:34.318Z,54.20
2023-03-06T15:11:03.905Z,55.10
2023-03-06T15:13:33.870Z,54.20
2023-03-06T15:16:04.598Z,54.10
2023-03-06T15:18:35.549Z,53.80
2023-03-06T15:21:17.260Z,54.20
2023-03-06T15:23:46.567Z,54.40
2023-03-06T15:26:24.898Z,54.50
2023-03-06T15:29:12.624Z,54.70
2023-03-06T15:31:42.131Z,54.30
2023-03-06T15:34:23.382Z,54.90
2023-03-06T15:36:55.493Z,55.40
2023-03-06T15:39:32.409Z,55.00
2023-03-06T15:42:01.196Z,55.10
2023-03-06T15:44:31.497Z,56.20
2023-03-06T15:47:08.415Z,56.90
2023-03-06T15:49:38.642Z,57.00
2023-03-06T15:52:09.054Z,57.80
2023-03-06T15:54:37.334Z,58.20
2023-03-06T15:57:07.487Z,58.60
2023-03-06T15:59:40.368Z,59.00
2023-03-06T16:02:15.461Z,59.40
2023-03-06T16:04:43.860Z,59.90
2023-03-06T16:07:13.631Z,60.50
2023-03-06T16:09:42.518Z,60.60
2023-03-06T16:12:16.818Z,61.00
2023-03-06T16:14:45.158Z,61.10
2023-03-06T16:17:14.091Z,61.00
2023-03-06T16:19:43.121Z,61.80
2023-03-06T16:22:11.422Z,62.00
2023-03-06T16:24:41.783Z,62.10
2023-03-06T16:27:17.733Z,62.40
2023-03-06T16:29:45.978Z,62.40
2023-03-06T16:32:30.214Z,62.70
2023-03-06T16:34:58.435Z,63.10
2023-03-06T16:37:26.663Z,63.30
2023-03-06T16:39:56.266Z,63.50
2023-03-06T16:42:24.673Z,63.70
2023-03-06T16:44:52.866Z,63.70
2023-03-06T16:47:21.159Z,64.40
2023-03-06T16:49:49.970Z,64.40
2023-03-06T16:52:18.399Z,64.30
2023-03-06T16:54:46.649Z,64.40
2023-03-06T16:57:16.545Z,64.80
2023-03-06T16:59:44.780Z,65.00
2023-03-06T17:02:13.604Z,65.30
2023-03-06T17:04:41.872Z,65.90
2023-03-06T17:07:10.125Z,66.30
2023-03-06T17:09:38.360Z,66.70
2023-03-06T17:12:06.787Z,67.10
2023-03-06T17:14:38.459Z,67.20
2023-03-06T17:17:06.960Z,67.60
2023-03-06T17:19:35.192Z,67.80
2023-03-06T17:22:03.464Z,68.10
2023-03-06T17:24:31.705Z,68.60
2023-03-06T17:26:59.918Z,68.80
2023-03-06T17:29:28.146Z,69.60
2023-03-06T17:31:57.943Z,69.80
2023-03-06T17:34:26.234Z,70.20
2023-03-06T17:36:54.730Z,70.60
2023-03-06T17:39:23.413Z,70.90
2023-03-06T17:41:51.632Z,71.40
2023-03-06T17:44:20.241Z,71.80
2023-03-06T17:46:50.011Z,72.00
2023-03-06T17:49:22.291Z,72.60
2023-03-06T17:51:50.785Z,73.00
2023-03-06T17:54:19.081Z,73.30
2023-03-06T17:56:47.590Z,73.50
2023-03-06T17:59:15.937Z,73.70
2023-03-06T18:01:45.142Z,73.80
2023-03-06T18:04:13.733Z,74.30
2023-03-06T18:06:43.331Z,74.60
2023-03-06T18:09:11.560Z,75.30
2023-03-06T18:11:39.830Z,74.70
2023-03-06T18:14:08.082Z,75.10
2023-03-06T18:16:36.334Z,75.80
2023-03-06T18:19:04.666Z,76.00
2023-03-06T18:21:32.895Z,76.00
2023-03-06T18:24:02.590Z,76.50
2023-03-06T18:26:31.426Z,76.70
2023-03-06T18:29:01.399Z,76.60
2023-03-06T18:31:34.163Z,76.50
2023-03-06T18:34:04.932Z,76.80
2023-03-06T18:36:34.280Z,77.80
2023-03-06T18:39:06.474Z,78.20
2023-03-06T18:41:35.929Z,78.60
2023-03-06T18:44:04.152Z,79.20
2023-03-06T18:46:33.944Z,79.90
2023-03-06T18:49:02.563Z,80.00
2023-03-06T18:51:30.931Z,80.50
2023-03-06T18:53:59.478Z,81.00
2023-03-06T18:56:29.461Z,81.60
2023-03-06T18:58:57.920Z,82.00
2023-03-06T19:01:26.889Z,82.70
2023-03-06T19:03:55.227Z,82.70
2023-03-06T19:06:23.442Z,83.60
2023-03-06T19:08:51.697Z,83.70
2023-03-06T19:11:19.881Z,84.10
2023-03-06T19:13:49.538Z,84.60
2023-03-06T19:16:19.582Z,84.80
2023-03-06T19:18:47.887Z,85.20
2023-03-06T19:21:17.915Z,85.80
2023-03-06T19:23:46.457Z,86.10
2023-03-06T19:26:14.764Z,86.60
2023-03-06T19:28:43.854Z,87.70
2023-03-06T19:31:15.847Z,89.10
2023-03-06T19:33:44.317Z,89.80
2023-03-06T19:36:13.806Z,89.50
2023-03-06T19:38:42.264Z,90.00
2023-03-06T19:41:13.583Z,90.10
2023-03-06T19:43:42.574Z,90.30
2023-03-06T19:46:14.082Z,90.70
2023-03-06T19:48:42.792Z,90.90
2023-03-06T19:51:11.594Z,90.90
2023-03-06T19:53:40.150Z,91.10
2023-03-06T19:56:09.982Z,91.00
2023-03-06T19:58:40.553Z,91.30
2023-03-06T20:01:10.194Z,91.50
2023-03-06T20:03:40.223Z,91.50
2023-03-06T20:06:13.099Z,91.70
2023-03-06T20:08:41.285Z,91.90
2023-03-06T20:11:16.577Z,92.20
2023-03-06T20:13:47.577Z,92.50
2023-03-06T20:16:16.138Z,92.80
2023-03-06T20:18:45.965Z,93.10
2023-03-06T20:21:14.731Z,93.20
2023-03-06T20:23:43.238Z,93.50
2023-03-06T20:26:14.349Z,93.40
2023-03-06T20:28:43.078Z,93.70
2023-03-06T20:31:13.333Z,93.90
2023-03-06T20:33:41.739Z,93.90
2023-03-06T20:36:15.073Z,94.00
2023-03-06T20:38:43.758Z,93.70
2023-03-06T20:41:15.631Z,94.10
2023-03-06T20:43:43.917Z,93.90
2023-03-06T20:46:13.231Z,94.20
2023-03-06T20:48:41.563Z,94.20
2023-03-06T20:51:13.090Z,94.20
2023-03-06T20:53:42.777Z,94.00
2023-03-06T20:56:12.953Z,94.00
2023-03-06T20:58:41.296Z,94.00
2023-03-06T21:01:09.602Z,94.20
2023-03-06T21:03:37.844Z,94.10
2023-03-06T21:06:06.533Z,94.00
2023-03-06T21:08:34.771Z,94.00
2023-03-06T21:11:04.439Z,93.90
2023-03-06T21:13:32.715Z,94.00
2023-03-06T21:16:01.007Z,94.10
2023-03-06T21:18:29.270Z,93.90
2023-03-06T21:20:57.491Z,94.00
2023-03-06T21:23:25.808Z,93.90
2023-03-06T21:25:54.068Z,93.90
2023-03-06T21:28:23.712Z,93.80
2023-03-06T21:30:51.964Z,93.60
2023-03-06T21:33:20.404Z,93.50
2023-03-06T21:35:49.083Z,93.50
2023-03-06T21:38:17.512Z,93.30
2023-03-06T21:40:46.207Z,93.30
2023-03-06T21:43:15.794Z,93.20
2023-03-06T21:45:46.322Z,93.10
2023-03-06T21:48:14.669Z,93.00
2023-03-06T21:50:43.350Z,92.50
2023-03-06T21:53:11.561Z,92.40
2023-03-06T21:55:41.365Z,92.20
2023-03-06T21:58:09.989Z,92.20
2023-03-06T22:00:39.343Z,91.90
2023-03-06T22:03:09.150Z,91.40
2023-03-06T22:05:37.360Z,91.40
2023-03-06T22:08:05.616Z,91.30
2023-03-06T22:10:33.815Z,91.10
2023-03-06T22:13:03.861Z,91.00
2023-03-06T22:15:32.090Z,91.00
2023-03-06T22:18:00.354Z,91.00
2023-03-06T22:20:29.966Z,91.10
2023-03-06T22:22:58.185Z,91.10
2023-03-06T22:25:26.427Z,91.00
2023-03-06T22:27:54.736Z,91.10
2023-03-06T22:30:23.002Z,91.00
2023-03-06T22:32:53.131Z,91.00
2023-03-06T22:35:21.389Z,91.10
2023-03-06T22:37:50.955Z,91.20
2023-03-06T22:40:19.376Z,96.40
2023-03-06T22:42:47.568Z,90.90
2023-03-06T22:45:15.939Z,91.10
2023-03-06T22:47:44.137Z,91.30
2023-03-06T22:50:13.177Z,91.30
2023-03-06T22:52:41.378Z,91.30
2023-03-06T22:55:11.609Z,91.40
2023-03-06T22:57:39.810Z,91.50
2023-03-06T23:00:11.034Z,91.40
2023-03-06T23:02:40.099Z,91.40
2023-03-06T23:05:08.877Z,91.40
2023-03-06T23:07:37.076Z,91.40
2023-03-06T23:10:06.892Z,91.40
2023-03-06T23:12:36.496Z,91.30
2023-03-06T23:15:05.292Z,91.40
2023-03-06T23:17:33.486Z,91.30
2023-03-06T23:20:02.172Z,91.00
2023-03-06T23:22:30.504Z,90.90
2023-03-06T23:24:58.713Z,90.90
2023-03-06T23:27:27.291Z,90.80
2023-03-06T23:29:59.096Z,90.70
2023-03-06T23:32:27.451Z,90.60
2023-03-06T23:34:55.704Z,90.60
2023-03-06T23:37:23.947Z,90.40
2023-03-06T23:39:52.111Z,90.30
2023-03-06T23:42:20.580Z,90.20
2023-03-06T23:44:48.818Z,90.10
2023-03-06T23:47:20.077Z,90.20
2023-03-06T23:49:48.344Z,90.10
2023-03-06T23:52:16.520Z,90.20
2023-03-06T23:54:44.813Z,90.20
2023-03-06T23:57:13.099Z,90.30
2023-03-06T23:59:41.304Z,90.40
